Time;durP1;ratioP1;P1;durP2;ratioP2;P2;SDS_P1;SDS_P2;PMS_P1;PMS_P2;Temp;Humidity;BMP_temperature;BMP_pressure;BME280_temperature;BME280_humidity;BME280_pressure;Samples;Min_cycle;Max_cycle;Signal;HPM_P1;HPM_P2
2021/06/30 00:00:58;;;;;;;10.00;5.55;;;;;;;21.25;61.00;100626.98;1745074;82;21019;-87
2021/06/30 00:03:25;;;;;;;13.38;5.42;;;;;;;21.23;61.11;100630.59;1744954;82;21755;-86
2021/06/30 00:05:52;;;;;;;8.30;5.03;;;;;;;21.20;61.20;100627.53;1744710;82;21014;-87
2021/06/30 00:08:18;;;;;;;10.95;5.90;;;;;;;21.21;61.25;100625.73;1744744;82;21497;-86
2021/06/30 00:10:45;;;;;;;11.55;5.72;;;;;;;21.20;61.28;100623.98;1744974;82;20991;-87
2021/06/30 00:13:14;;;;;;;10.48;5.92;;;;;;;21.19;61.33;100623.11;1744815;82;21504;-87
2021/06/30 00:15:44;;;;;;;11.22;6.30;;;;;;;21.17;61.36;100622.23;1745056;82;21723;-88
2021/06/30 00:18:23;;;;;;;8.60;6.20;;;;;;;21.19;61.38;100615.52;1744987;82;21058;-87
2021/06/30 00:20:51;;;;;;;8.25;5.80;;;;;;;21.16;61.49;100618.68;1744895;82;20987;-87
2021/06/30 00:23:27;;;;;;;11.35;5.62;;;;;;;21.15;61.52;100619.61;1745098;82;21018;-87
2021/06/30 00:25:54;;;;;;;9.13;5.20;;;;;;;21.13;61.61;100613.41;1745044;82;21053;-87
2021/06/30 00:28:23;;;;;;;8.30;4.95;;;;;;;21.12;61.65;100610.30;1744951;82;21754;-88
2021/06/30 00:30:50;;;;;;;10.03;5.40;;;;;;;21.10;61.72;100606.77;1744763;82;21501;-88
2021/06/30 00:33:19;;;;;;;8.10;5.00;;;;;;;21.08;61.81;100601.04;1745032;82;21062;-87
2021/06/30 00:35:46;;;;;;;7.97;4.95;;;;;;;21.06;61.94;100598.39;1718652;82;21034;-87
2021/06/30 00:38:13;;;;;;;6.28;4.47;;;;;;;21.00;62.04;100595.81;1745032;82;21200;-87
2021/06/30 00:40:40;;;;;;;8.88;5.10;;;;;;;20.98;62.13;100589.62;1744839;82;21750;-88
2021/06/30 00:43:07;;;;;;;9.28;4.80;;;;;;;20.96;62.22;100588.77;1744952;82;21003;-88
2021/06/30 00:45:33;;;;;;;8.03;4.97;;;;;;;20.92;62.30;100585.73;1745194;82;21634;-88
2021/06/30 00:48:00;;;;;;;8.70;4.80;;;;;;;20.89;62.35;100587.13;1744915;82;21158;-88
2021/06/30 00:50:32;;;;;;;8.90;5.12;;;;;;;20.81;62.39;100571.70;1742145;82;21670;-93
2021/06/30 00:53:09;;;;;;;11.88;5.35;;;;;;;20.73;62.52;100572.73;1742668;82;22450;-93
2021/06/30 00:55:48;;;;;;;6.10;4.67;;;;;;;20.67;62.67;100566.64;1742198;82;21106;-93
2021/06/30 00:58:18;;;;;;;8.05;4.62;;;;;;;20.57;62.79;100564.53;1723052;82;21027;-92
2021/06/30 01:00:45;;;;;;;7.05;4.80;;;;;;;20.48;62.98;100570.09;1742404;82;21054;-95
2021/06/30 01:03:12;;;;;;;7.95;4.53;;;;;;;20.41;63.05;100564.42;1721309;82;22324;-93
2021/06/30 01:05:39;;;;;;;12.10;4.45;;;;;;;20.33;63.15;100569.91;1742801;82;21759;-93
2021/06/30 01:08:06;;;;;;;7.05;4.45;;;;;;;20.27;63.25;100568.23;1742510;82;21550;-92
2021/06/30 01:10:33;;;;;;;6.80;5.12;;;;;;;20.19;63.41;100571.02;1742377;82;21121;-92
2021/06/30 01:13:00;;;;;;;9.25;4.62;;;;;;;20.12;63.54;100570.72;1742493;82;21159;-93
2021/06/30 01:15:56;;;;;;;7.08;5.00;;;;;;;20.07;63.59;100570.38;1745580;82;21100;-92
2021/06/30 01:18:23;;;;;;;8.08;4.47;;;;;;;20.02;63.69;100572.23;1742560;82;22507;-90
2021/06/30 01:20:51;;;;;;;7.50;4.55;;;;;;;19.95;63.93;100573.67;1742623;82;21007;-91
2021/06/30 01:23:18;;;;;;;7.33;4.95;;;;;;;19.91;64.18;100579.95;1742464;82;21531;-92
2021/06/30 01:25:45;;;;;;;5.90;5.00;;;;;;;19.86;64.28;100576.92;1742567;82;21016;-91
2021/06/30 01:28:30;;;;;;;10.10;4.72;;;;;;;19.81;64.40;100578.34;1742456;82;21015;-90
2021/06/30 01:30:57;;;;;;;6.97;4.20;;;;;;;19.76;64.52;100566.84;1716998;83;21773;-89
2021/06/30 01:33:24;;;;;;;8.60;4.80;;;;;;;19.71;64.64;100573.58;1717150;82;21357;-89
2021/06/30 01:35:51;;;;;;;4.95;4.33;;;;;;;19.66;64.73;100577.22;1716452;83;21463;-89
2021/06/30 01:38:23;;;;;;;6.00;4.40;;;;;;;19.61;64.81;100572.84;1711901;83;21065;-90
2021/06/30 01:40:51;;;;;;;7.72;4.72;;;;;;;19.58;64.87;100586.69;1714035;83;21707;-90
2021/06/30 01:43:17;;;;;;;6.75;4.47;;;;;;;19.53;64.94;100575.19;1716623;83;21766;-89
2021/06/30 01:45:44;;;;;;;7.33;5.08;;;;;;;19.48;65.05;100575.70;1717048;83;21087;-89
2021/06/30 01:48:19;;;;;;;5.33;4.55;;;;;;;19.42;65.11;100573.53;1717156;83;21694;-89
2021/06/30 01:50:49;;;;;;;7.92;4.75;;;;;;;19.38;65.23;100567.81;1712663;83;21059;-92
2021/06/30 01:53:17;;;;;;;9.18;4.45;;;;;;;19.33;65.36;100567.45;1720042;83;21024;-94
2021/06/30 01:55:56;;;;;;;6.65;4.40;;;;;;;19.31;65.56;100562.59;1719912;83;21764;-91
2021/06/30 01:59:32;;;;;;;12.45;4.22;;;;;;;19.31;65.62;100557.25;1719774;83;21143;-92
2021/06/30 02:02:04;;;;;;;4.55;4.03;;;;;;;19.30;65.68;100558.17;1689936;83;21663;-88
2021/06/30 02:04:31;;;;;;;7.78;4.42;;;;;;;19.31;65.81;100571.93;1714402;83;21141;-88
2021/06/30 02:06:58;;;;;;;6.05;4.40;;;;;;;19.32;65.96;100567.04;1714628;83;21135;-88
2021/06/30 02:09:25;;;;;;;6.20;4.10;;;;;;;19.34;66.04;100566.10;1710744;83;21771;-88
2021/06/30 02:11:51;;;;;;;8.68;4.62;;;;;;;19.37;66.09;100562.49;1710397;83;20991;-88
2021/06/30 02:14:18;;;;;;;6.72;4.00;;;;;;;19.40;66.06;100559.80;1710644;83;21031;-87
2021/06/30 02:16:45;;;;;;;8.10;4.42;;;;;;;19.45;66.07;100558.41;1710558;83;21059;-87
2021/06/30 02:19:12;;;;;;;5.22;4.15;;;;;;;19.51;65.97;100558.31;1710751;83;21554;-87
2021/06/30 02:21:38;;;;;;;5.87;4.30;;;;;;;19.57;65.92;100562.22;1710582;83;21746;-87
2021/06/30 02:24:06;;;;;;;8.15;4.92;;;;;;;19.61;65.76;100560.83;1710544;83;21077;-88
2021/06/30 02:26:34;;;;;;;5.87;4.12;;;;;;;19.64;65.64;100558.55;1710536;83;21019;-87
2021/06/30 02:29:01;;;;;;;5.37;4.40;;;;;;;19.66;65.52;100554.06;1690374;83;21156;-88
2021/06/30 02:31:27;;;;;;;7.03;4.50;;;;;;;19.71;65.44;100554.02;1710684;83;21050;-88
2021/06/30 02:33:54;;;;;;;6.28;4.60;;;;;;;19.73;65.22;100554.90;1710576;83;22560;-88
2021/06/30 02:36:21;;;;;;;8.33;4.20;;;;;;;19.71;65.11;100550.00;1710582;83;21074;-87
2021/06/30 02:38:48;;;;;;;4.90;3.80;;;;;;;19.72;65.06;100547.75;1710679;83;21070;-88
2021/06/30 02:41:15;;;;;;;6.10;4.10;;;;;;;19.71;64.97;100543.33;1710560;83;21074;-88
2021/06/30 02:43:42;;;;;;;5.72;3.77;;;;;;;19.72;64.94;100551.75;1710674;83;21556;-88
2021/06/30 02:46:09;;;;;;;6.90;4.03;;;;;;;19.68;64.97;100550.91;1710723;83;21721;-89
2021/06/30 02:48:36;;;;;;;5.67;4.50;;;;;;;19.66;65.08;100555.86;1710686;83;21094;-87
2021/06/30 02:51:02;;;;;;;5.55;4.25;;;;;;;19.67;65.14;100547.83;1738807;82;21054;-87
2021/06/30 02:53:29;;;;;;;4.83;3.80;;;;;;;19.68;65.15;100548.70;1740592;82;21003;-87
2021/06/30 02:56:04;;;;;;;4.37;3.92;;;;;;;19.68;65.22;100550.04;1740842;82;21051;-89
2021/06/30 02:58:29;;;;;;;6.47;4.22;;;;;;;19.68;65.25;100550.91;1740026;82;21793;-89
2021/06/30 03:00:56;;;;;;;8.15;4.30;;;;;;;19.71;65.27;100549.55;1740737;82;21010;-90
2021/06/30 03:03:23;;;;;;;7.15;3.60;;;;;;;19.77;65.26;100553.94;1740578;82;21031;-87
2021/06/30 03:05:50;;;;;;;5.45;3.80;;;;;;;19.82;65.27;100541.40;1740755;82;20968;-90
2021/06/30 03:08:17;;;;;;;6.17;4.30;;;;;;;19.89;65.18;100547.50;1740838;82;20999;-89
2021/06/30 03:10:43;;;;;;;6.30;4.15;;;;;;;19.98;65.24;100554.91;1740843;82;21762;-89
2021/06/30 03:13:14;;;;;;;3.92;3.40;;;;;;;20.09;65.11;100547.17;1740402;82;21054;-89
2021/06/30 03:15:41;;;;;;;6.08;3.80;;;;;;;20.20;65.04;100554.55;1740879;82;21007;-88
2021/06/30 03:18:08;;;;;;;8.18;3.52;;;;;;;20.29;64.85;100552.14;1740728;82;21201;-88
2021/06/30 03:20:39;;;;;;;5.00;3.45;;;;;;;20.37;64.73;100550.23;1740775;82;21018;-88
2021/06/30 03:23:06;;;;;;;5.92;3.75;;;;;;;20.44;64.64;100549.20;1711768;82;21772;-87
2021/06/30 03:25:33;;;;;;;4.78;3.42;;;;;;;20.54;64.56;100539.22;1740725;82;21019;-87
2021/06/30 03:28:00;;;;;;;3.72;3.37;;;;;;;20.66;64.43;100543.47;1740679;82;21074;-87
2021/06/30 03:30:29;;;;;;;7.00;3.58;;;;;;;20.75;64.33;100531.24;1740505;82;21019;-86
2021/06/30 03:32:55;;;;;;;7.45;3.70;;;;;;;21.13;64.91;100534.45;1739966;81;21059;-88
2021/06/30 03:35:42;;;;;;;7.50;4.05;;;;;;;22.16;65.13;100530.23;1740527;82;21746;-89
2021/06/30 03:38:22;;;;;;;5.83;3.85;;;;;;;23.08;63.48;100531.23;1740067;81;21011;-89
2021/06/30 03:40:48;;;;;;;6.15;4.17;;;;;;;24.11;62.20;100535.13;1740279;82;21520;-88
2021/06/30 03:43:19;;;;;;;5.55;3.95;;;;;;;24.43;60.08;100527.73;1740358;82;21007;-88
2021/06/30 03:45:47;;;;;;;7.55;3.62;;;;;;;24.28;59.06;100536.35;1705707;82;36705;-89
2021/06/30 03:48:14;;;;;;;5.22;3.80;;;;;;;24.10;58.71;100536.08;1740432;82;22641;-88
2021/06/30 03:50:41;;;;;;;7.15;4.15;;;;;;;24.13;58.96;100537.29;1742664;82;21066;-86
2021/06/30 03:53:07;;;;;;;8.05;4.10;;;;;;;24.71;58.95;100530.80;1744513;82;21121;-86
2021/06/30 03:55:34;;;;;;;8.53;4.60;;;;;;;25.97;58.93;100529.41;1744338;82;21074;-86
2021/06/30 03:58:01;;;;;;;6.03;4.10;;;;;;;27.16;56.84;100528.19;1744676;81;21516;-87
2021/06/30 04:00:28;;;;;;;5.83;4.15;;;;;;;28.13;55.84;100533.38;1744910;82;21777;-87
2021/06/30 04:03:05;;;;;;;5.45;4.45;;;;;;;29.33;54.11;100529.17;1744713;82;21615;-89
2021/06/30 04:05:34;;;;;;;6.83;3.83;;;;;;;30.50;52.69;100535.91;1740837;81;20999;-87
2021/06/30 04:08:00;;;;;;;8.88;4.28;;;;;;;31.63;50.68;100531.00;1745050;82;21195;-89
2021/06/30 04:10:27;;;;;;;5.28;4.15;;;;;;;32.45;49.31;100530.89;1745073;81;21067;-88
2021/06/30 04:12:54;;;;;;;6.35;3.92;;;;;;;33.27;47.64;100529.56;1744429;82;21765;-89
2021/06/30 04:15:21;;;;;;;7.17;4.37;;;;;;;33.91;46.03;100538.52;1744966;82;21015;-87
2021/06/30 04:17:47;;;;;;;6.50;4.40;;;;;;;34.40;44.63;100537.46;1744987;82;20999;-86
2021/06/30 04:20:14;;;;;;;7.78;4.62;;;;;;;34.79;43.25;100533.95;1744852;82;21039;-86
2021/06/30 04:22:41;;;;;;;5.03;4.33;;;;;;;34.90;42.04;100527.63;1745444;82;21070;-88
2021/06/30 04:25:09;;;;;;;5.83;4.60;;;;;;;35.04;41.53;100521.41;1744907;82;21768;-89
2021/06/30 04:27:36;;;;;;;7.90;4.47;;;;;;;35.30;40.31;100525.23;1744994;82;21038;-89
2021/06/30 04:30:06;;;;;;;4.87;3.98;;;;;;;35.83;40.14;100525.00;1744584;82;21062;-89
2021/06/30 04:32:33;;;;;;;6.95;4.00;;;;;;;36.55;39.08;100527.02;1744732;81;22352;-88
2021/06/30 04:34:59;;;;;;;6.62;3.75;;;;;;;37.08;38.02;100530.96;1744410;82;21011;-88
2021/06/30 04:37:26;;;;;;;7.17;3.90;;;;;;;37.62;37.44;100531.60;1744387;82;21757;-89
2021/06/30 04:39:53;;;;;;;6.20;4.20;;;;;;;38.14;36.26;100533.22;1744771;81;21058;-90
2021/06/30 04:42:20;;;;;;;10.03;4.33;;;;;;;38.44;35.36;100528.92;1743170;82;21023;-90
2021/06/30 04:44:47;;;;;;;4.12;3.40;;;;;;;39.06;34.63;100536.72;1743994;82;21070;-90
2021/06/30 04:47:13;;;;;;;5.72;3.17;;;;;;;39.63;33.93;100535.20;1744457;82;21085;-86
2021/06/30 04:49:42;;;;;;;6.15;3.62;;;;;;;40.30;32.76;100530.64;1744729;81;21756;-89
2021/06/30 04:52:09;;;;;;;6.85;3.90;;;;;;;40.64;31.86;100539.03;1742138;82;21007;-86
2021/06/30 04:54:35;;;;;;;5.28;4.08;;;;;;;40.85;31.12;100526.77;1742501;82;21070;-87
2021/06/30 04:57:02;;;;;;;7.37;4.12;;;;;;;41.01;30.36;100529.58;1742501;82;20988;-86
2021/06/30 04:59:29;;;;;;;11.08;4.50;;;;;;;41.12;30.01;100529.28;1742292;82;21066;-85
2021/06/30 05:01:56;;;;;;;8.65;3.75;;;;;;;41.50;29.63;100526.16;1742526;82;21752;-87
2021/06/30 05:04:22;;;;;;;5.25;4.08;;;;;;;41.75;28.96;100522.45;1742333;82;20988;-89
2021/06/30 05:06:49;;;;;;;4.78;3.47;;;;;;;41.83;28.55;100529.03;1742588;82;21007;-89
2021/06/30 05:09:15;;;;;;;8.68;4.20;;;;;;;42.14;28.13;100530.60;1742481;82;21047;-86
2021/06/30 05:11:42;;;;;;;7.90;3.30;;;;;;;42.32;27.79;100532.67;1742585;82;21078;-87
2021/06/30 05:14:09;;;;;;;4.22;3.50;;;;;;;42.55;27.07;100534.73;1742493;82;21717;-93
2021/06/30 05:16:35;;;;;;;4.37;3.50;;;;;;;42.66;26.82;100530.22;1742593;82;21259;-90
2021/06/30 05:19:02;;;;;;;4.33;3.02;;;;;;;43.00;26.32;100531.02;1742332;82;21003;-90
2021/06/30 05:21:29;;;;;;;7.78;3.52;;;;;;;43.10;25.90;100533.06;1742582;82;21118;-89
2021/06/30 05:23:55;;;;;;;4.17;3.20;;;;;;;43.25;25.63;100534.02;1693199;82;21544;-88
2021/06/30 05:26:22;;;;;;;5.85;3.58;;;;;;;43.39;25.07;100533.80;1753720;81;22563;-88
2021/06/30 05:28:48;;;;;;;4.58;3.00;;;;;;;43.13;24.49;100525.76;1688728;84;21090;-90
2021/06/30 05:31:15;;;;;;;6.72;4.00;;;;;;;43.13;24.55;100524.91;1730146;83;21047;-88
2021/06/30 05:33:42;;;;;;;7.90;4.33;;;;;;;43.20;23.74;100528.16;1730214;82;21189;-87
2021/06/30 05:36:08;;;;;;;9.65;3.60;;;;;;;42.71;23.78;100520.88;1688993;85;21606;-86
2021/06/30 05:38:36;;;;;;;5.70;2.83;;;;;;;42.12;23.58;100516.98;1730258;82;21742;-85
2021/06/30 05:41:03;;;;;;;8.68;4.53;;;;;;;41.06;23.49;100524.96;1729873;82;21075;-85
2021/06/30 05:43:29;;;;;;;7.05;4.58;;;;;;;38.98;23.84;100518.18;1729898;82;21110;-86
2021/06/30 05:45:56;;;;;;;6.22;3.50;;;;;;;36.94;25.10;100518.98;1727715;82;21063;-86
2021/06/30 05:48:23;;;;;;;6.05;3.55;;;;;;;35.17;26.43;100521.75;1729440;82;22112;-88
2021/06/30 05:50:49;;;;;;;7.55;3.40;;;;;;;33.98;27.12;100520.67;1729298;83;21762;-87
2021/06/30 05:53:17;;;;;;;9.15;3.37;;;;;;;33.01;27.86;100524.63;1729078;82;21051;-87
2021/06/30 05:55:44;;;;;;;7.87;3.42;;;;;;;32.25;28.70;100529.08;1655443;85;21122;-86
2021/06/30 05:58:11;;;;;;;8.93;4.08;;;;;;;31.61;29.23;100534.31;1729598;82;21047;-86
2021/06/30 06:00:37;;;;;;;7.47;3.55;;;;;;;30.95;29.94;100523.14;1729018;83;21123;-86
2021/06/30 06:03:04;;;;;;;9.23;4.05;;;;;;;30.41;30.59;100519.69;1729875;82;21724;-84
2021/06/30 06:05:30;;;;;;;6.12;3.67;;;;;;;29.91;31.80;100518.16;1655982;85;21071;-85
2021/06/30 06:07:57;;;;;;;8.18;4.62;;;;;;;29.44;32.71;100514.52;1729992;83;21011;-84
2021/06/30 06:10:24;;;;;;;8.13;3.67;;;;;;;29.04;33.32;100515.89;1655618;85;21181;-85
2021/06/30 06:12:50;;;;;;;9.45;3.20;;;;;;;28.54;33.91;100512.28;1729760;83;21066;-85
2021/06/30 06:15:20;;;;;;;7.00;4.35;;;;;;;28.23;34.29;100516.59;1655563;85;21767;-84
2021/06/30 06:17:46;;;;;;;5.65;3.72;;;;;;;27.89;34.50;100518.80;1729813;82;21000;-84
2021/06/30 06:20:13;;;;;;;4.60;2.90;;;;;;;27.35;34.78;100507.94;1655937;85;21004;-84
2021/06/30 06:22:40;;;;;;;3.83;2.92;;;;;;;27.03;35.42;100507.63;1655677;85;21269;-86
2021/06/30 06:25:07;;;;;;;7.58;3.47;;;;;;;26.74;35.66;100497.69;1655681;85;22327;-85
2021/06/30 06:27:35;;;;;;;5.20;3.62;;;;;;;26.47;36.33;100497.60;1655736;86;22650;-85
2021/06/30 06:30:02;;;;;;;6.05;3.83;;;;;;;26.19;36.73;100502.87;1730098;83;21051;-84
2021/06/30 06:32:28;;;;;;;5.70;3.10;;;;;;;25.90;37.40;100495.99;1730109;83;21035;-84
2021/06/30 06:34:55;;;;;;;3.90;2.67;;;;;;;25.72;37.80;100493.63;1655519;85;21662;-85
2021/06/30 06:37:22;;;;;;;7.05;2.98;;;;;;;25.54;38.13;100488.04;1729619;83;21040;-85
2021/06/30 06:39:48;;;;;;;6.62;3.10;;;;;;;25.45;38.50;100491.59;1730169;82;22460;-86
2021/06/30 06:42:15;;;;;;;8.78;3.37;;;;;;;25.42;38.99;100489.91;1730223;82;21078;-87
2021/06/30 06:44:42;;;;;;;6.17;2.87;;;;;;;25.33;39.27;100491.14;1656278;85;21078;-85
2021/06/30 06:47:09;;;;;;;8.35;3.25;;;;;;;25.34;39.45;100496.05;1730183;82;21012;-88
2021/06/30 06:49:35;;;;;;;4.83;2.90;;;;;;;25.31;39.69;100493.03;1729830;83;21652;-87
2021/06/30 06:52:03;;;;;;;3.75;3.08;;;;;;;25.29;40.01;100500.30;1710191;83;24094;-88
2021/06/30 06:54:30;;;;;;;5.85;2.87;;;;;;;25.37;40.37;100510.77;1688831;85;21046;-87
2021/06/30 06:56:56;;;;;;;6.90;5.70;;;;;;;25.57;40.49;100509.96;1730174;82;21055;-86
2021/06/30 06:59:23;;;;;;;9.98;4.33;;;;;;;25.69;40.39;100500.00;1754138;81;21057;-84
2021/06/30 07:01:50;;;;;;;6.72;2.62;;;;;;;25.87;39.93;100504.23;1754749;80;20947;-93
2021/06/30 07:04:16;;;;;;;7.67;3.10;;;;;;;26.04;39.73;100505.77;1754466;81;21767;-90
2021/06/30 07:06:43;;;;;;;3.62;2.30;;;;;;;26.18;39.25;100507.40;1689333;84;21085;-88
2021/06/30 07:09:10;;;;;;;7.90;4.33;;;;;;;26.17;39.17;100504.28;1730539;83;21509;-89
2021/06/30 07:11:37;;;;;;;6.33;3.83;;;;;;;26.30;38.97;100501.05;1689384;85;21046;-89
2021/06/30 07:14:04;;;;;;;5.58;3.27;;;;;;;26.37;38.75;100499.81;1753891;81;21310;-89
2021/06/30 07:16:30;;;;;;;5.05;2.37;;;;;;;26.51;38.73;100504.61;1689353;84;21763;-90
2021/06/30 07:18:57;;;;;;;4.67;2.72;;;;;;;26.59;38.54;100499.72;1730156;83;21047;-89
2021/06/30 07:21:24;;;;;;;4.78;3.10;;;;;;;26.64;38.53;100500.91;1688638;85;21054;-92
2021/06/30 07:23:51;;;;;;;3.15;2.40;;;;;;;26.68;38.44;100500.69;1754802;81;20951;-88
2021/06/30 07:26:17;;;;;;;3.52;2.70;;;;;;;26.73;38.41;100507.24;1690033;85;21031;-90
2021/06/30 07:28:44;;;;;;;3.60;2.42;;;;;;;26.81;38.38;100496.08;1730359;83;22571;-90
2021/06/30 07:31:11;;;;;;;6.72;2.60;;;;;;;26.90;38.19;100493.82;1689075;85;21010;-91
2021/06/30 07:33:39;;;;;;;3.95;2.37;;;;;;;26.91;38.05;100499.61;1730594;82;21023;-91
2021/06/30 07:36:06;;;;;;;3.50;2.37;;;;;;;26.93;38.21;100486.94;1754803;81;21125;-87
2021/06/30 07:38:33;;;;;;;2.58;2.37;;;;;;;27.01;38.15;100491.07;1689241;85;21030;-88
2021/06/30 07:40:59;;;;;;;6.00;2.65;;;;;;;27.06;37.73;100488.55;1730018;83;21756;-87
2021/06/30 07:43:26;;;;;;;3.37;2.65;;;;;;;27.06;37.45;100483.63;1689307;85;21026;-89
2021/06/30 07:45:53;;;;;;;5.15;2.60;;;;;;;27.11;37.58;100485.16;1730605;82;20956;-86
2021/06/30 07:48:21;;;;;;;3.00;2.40;;;;;;;27.14;37.55;100483.67;1729357;82;21101;-86
2021/06/30 07:50:49;;;;;;;3.92;2.83;;;;;;;27.15;37.75;100480.49;1753109;80;21018;-87
2021/06/30 07:53:16;;;;;;;3.60;2.60;;;;;;;27.20;37.83;100479.80;1693622;84;21828;-88
2021/06/30 07:55:42;;;;;;;3.27;2.42;;;;;;;27.36;37.82;100484.00;1756682;81;21081;-93
2021/06/30 07:58:11;;;;;;;2.45;2.20;;;;;;;27.46;37.79;100481.70;1756831;81;21066;-89
2021/06/30 08:00:38;;;;;;;5.00;3.15;;;;;;;27.62;37.98;100486.75;1756926;81;21030;-88
2021/06/30 08:03:04;;;;;;;5.45;3.00;;;;;;;27.80;37.89;100490.83;1723660;81;21057;-90
2021/06/30 08:05:33;;;;;;;7.80;3.00;;;;;;;27.82;38.07;100492.52;1694479;84;21797;-91
2021/06/30 08:07:59;;;;;;;5.60;3.25;;;;;;;27.92;38.20;100478.94;1756856;81;21586;-87
2021/06/30 08:10:26;;;;;;;6.67;2.70;;;;;;;28.16;38.18;100470.51;1687963;84;21034;-89
2021/06/30 08:12:53;;;;;;;4.90;2.45;;;;;;;28.50;37.96;100468.70;1757063;81;21406;-94
2021/06/30 08:15:26;;;;;;;8.20;3.50;;;;;;;28.71;37.57;100469.38;1694590;84;21065;-91
2021/06/30 08:17:53;;;;;;;;;;;;;;;28.80;37.44;100476.14;1759842;81;21773;-89
2021/06/30 08:20:19;;;;;;;6.37;2.50;;;;;;;28.80;37.26;100467.52;1757196;81;20166;-91
2021/06/30 08:22:50;;;;;;;4.65;2.30;;;;;;;28.77;37.26;100470.39;1694397;84;21062;-91
2021/06/30 08:25:24;;;;;;;3.45;2.45;;;;;;;28.86;37.32;100466.30;1750216;81;21041;-90
2021/06/30 08:27:52;;;;;;;2.90;2.27;;;;;;;28.99;37.35;100473.27;1750091;81;21074;-91
2021/06/30 08:30:19;;;;;;;4.08;2.95;;;;;;;29.15;37.33;100461.99;1694358;84;21793;-89
2021/06/30 08:32:47;;;;;;;8.03;2.85;;;;;;;29.30;37.32;100462.95;1756826;81;21528;-89
2021/06/30 08:35:22;;;;;;;3.77;2.35;;;;;;;29.37;37.11;100466.16;1694109;84;21605;-89
2021/06/30 08:37:54;;;;;;;3.22;2.30;;;;;;;29.23;36.98;100461.06;1718241;83;21077;-90
2021/06/30 08:40:20;;;;;;;4.33;2.70;;;;;;;29.13;37.04;100460.28;1718476;83;21082;-90
2021/06/30 08:42:47;;;;;;;3.17;2.10;;;;;;;29.11;37.21;100463.07;1694425;83;21774;-88
2021/06/30 08:45:14;;;;;;;2.65;2.45;;;;;;;29.12;37.14;100457.20;1718537;83;21022;-89
2021/06/30 08:47:41;;;;;;;3.27;2.75;;;;;;;28.91;37.10;100445.26;1718633;83;21030;-89
2021/06/30 08:50:11;;;;;;;3.98;2.47;;;;;;;28.74;37.17;100446.20;1718409;83;21370;-90
2021/06/30 08:52:38;;;;;;;3.20;2.60;;;;;;;28.73;37.50;100447.64;1724561;81;21650;-89
2021/06/30 08:55:07;;;;;;;4.72;2.55;;;;;;;28.82;37.54;100446.64;1725571;83;21996;-90
2021/06/30 08:57:33;;;;;;;5.50;2.65;;;;;;;29.05;37.51;100449.39;1725954;83;21105;-90
2021/06/30 09:04:32;;;;;;;4.62;2.12;;;;;;;29.78;37.05;100443.89;1725847;83;21077;-90
2021/06/30 09:11:26;;;;;;;4.00;2.17;;;;;;;30.62;35.98;100437.33;1725906;83;21085;-90
2021/06/30 09:14:20;;;;;;;4.30;3.00;;;;;;;30.70;35.42;100440.05;1726203;83;20959;-90
2021/06/30 09:17:08;;;;;;;3.25;2.50;;;;;;;30.64;35.55;100439.09;1725973;83;21552;-90
2021/06/30 09:20:06;;;;;;;4.37;2.02;;;;;;;30.62;35.40;100435.97;1725963;81;21102;-90
2021/06/30 09:33:54;;;;;;;6.25;2.47;;;;;;;31.42;34.85;100439.90;1557253;91;21599;-89
2021/06/30 09:36:23;;;;;;;2.65;2.17;;;;;;;31.49;34.23;100435.33;1658282;86;21097;-90
2021/06/30 09:42:17;;;;;;;2.92;2.40;;;;;;;31.70;34.14;100434.84;1630226;86;21203;-90
2021/06/30 09:44:44;;;;;;;4.70;2.27;;;;;;;31.76;34.09;100435.81;1658250;86;21078;-89
2021/06/30 09:47:44;;;;;;;2.12;2.00;;;;;;;31.79;34.04;100430.13;1658120;86;21018;-90
2021/06/30 09:50:37;;;;;;;9.13;2.45;;;;;;;31.80;34.11;100429.17;1658566;86;21105;-90
2021/06/30 09:53:03;;;;;;;2.30;2.10;;;;;;;31.91;34.18;100422.48;1667001;84;21044;-90
2021/06/30 09:55:45;;;;;;;4.50;2.67;;;;;;;32.02;34.10;100425.83;1667726;86;21814;-90
2021/06/30 09:58:12;;;;;;;5.42;2.47;;;;;;;32.08;34.14;100421.81;1667919;86;21071;-90
2021/06/30 10:00:45;;;;;;;5.62;2.22;;;;;;;32.19;34.16;100421.05;1623384;86;21092;-90
2021/06/30 10:03:12;;;;;;;6.47;2.60;;;;;;;32.24;34.08;100419.75;1645284;86;21262;-90
2021/06/30 10:05:41;;;;;;;3.08;2.30;;;;;;;32.28;34.06;100416.31;1667932;86;21049;-89
2021/06/30 10:08:11;;;;;;;3.35;2.62;;;;;;;32.26;34.11;100423.73;1731497;82;21838;-90
2021/06/30 10:14:25;;;;;;;2.60;2.40;;;;;;;32.25;34.04;100410.61;1662265;85;21140;-90
2021/06/30 10:16:52;;;;;;;4.30;2.55;;;;;;;32.23;33.89;100415.30;1696799;84;21060;-90
2021/06/30 10:19:21;;;;;;;2.47;1.98;;;;;;;32.17;34.01;100417.08;1697030;84;21071;-96
2021/06/30 10:21:47;;;;;;;5.70;2.40;;;;;;;32.13;34.09;100408.75;1681668;85;22761;-90
2021/06/30 10:24:14;;;;;;;7.12;2.17;;;;;;;32.21;34.15;100409.56;1696973;84;21023;-90
2021/06/30 10:26:41;;;;;;;4.17;2.10;;;;;;;32.24;34.20;100412.94;1696848;84;21552;-91
2021/06/30 10:29:08;;;;;;;4.42;2.60;;;;;;;32.21;34.28;100420.45;1696984;83;21055;-90
2021/06/30 10:31:35;;;;;;;4.10;2.27;;;;;;;32.11;34.16;100414.30;1696807;84;21130;-90
2021/06/30 10:34:05;;;;;;;2.67;2.33;;;;;;;32.03;34.33;100422.64;1696807;84;21738;-91
2021/06/30 10:37:34;;;;;;;5.28;2.22;;;;;;;31.87;34.56;100410.55;1696574;84;21504;-91
2021/06/30 10:44:02;;;;;;;5.67;2.52;;;;;;;31.70;34.85;100403.55;1592127;89;21163;-90
2021/06/30 10:46:29;;;;;;;3.20;2.60;;;;;;;31.64;34.82;100405.34;1585153;90;21561;-90
2021/06/30 10:49:16;;;;;;;3.35;2.45;;;;;;;31.31;34.30;100398.45;1592317;90;21796;-90
2021/06/30 10:51:46;;;;;;;6.00;2.85;;;;;;;31.14;34.28;100400.48;1583658;90;21069;-91
2021/06/30 10:54:45;;;;;;;2.90;2.37;;;;;;;30.89;34.32;100395.75;1583093;90;21128;-92
2021/06/30 10:57:31;;;;;;;3.52;2.55;;;;;;;30.76;34.48;100389.37;1553541;92;21164;-91
2021/06/30 11:00:06;;;;;;;4.45;2.35;;;;;;;30.67;34.69;100391.33;1583369;90;21038;-92
2021/06/30 11:02:34;;;;;;;11.40;3.25;;;;;;;30.64;34.90;100396.98;1553950;92;21792;-91
2021/06/30 11:05:18;;;;;;;5.40;2.35;;;;;;;30.52;34.95;100398.16;1562588;90;21141;-91
2021/06/30 11:07:45;;;;;;;5.50;2.52;;;;;;;30.35;35.12;100391.09;1576882;89;21109;-90
2021/06/30 11:10:23;;;;;;;3.77;2.60;;;;;;;30.16;35.49;100394.53;1588216;86;21132;-90
2021/06/30 11:12:58;;;;;;;5.42;2.50;;;;;;;30.07;35.88;100394.64;1657256;86;21089;-92
2021/06/30 11:15:39;;;;;;;2.98;2.15;;;;;;;29.95;36.09;100399.45;1657141;86;21418;-92
2021/06/30 11:18:20;;;;;;;5.35;2.20;;;;;;;29.82;36.32;100399.33;1728215;81;21033;-90
2021/06/30 11:20:48;;;;;;;3.77;2.55;;;;;;;29.75;36.69;100396.59;1736508;81;21558;-90
2021/06/30 11:23:24;;;;;;;4.17;2.52;;;;;;;29.64;36.94;100400.81;1752173;81;21100;-90
2021/06/30 11:25:54;;;;;;;6.20;2.60;;;;;;;29.53;37.22;100401.94;1751564;81;21056;-92
2021/06/30 11:28:38;;;;;;;5.80;2.65;;;;;;;29.39;37.45;100400.52;1713289;83;21765;-92
2021/06/30 11:32:01;;;;;;;3.60;2.42;;;;;;;29.32;37.73;100400.48;1751729;81;21021;-91
2021/06/30 11:35:01;;;;;;;4.27;2.60;;;;;;;29.25;37.90;100404.92;1705126;82;21676;-91
2021/06/30 11:38:05;;;;;;;5.60;3.02;;;;;;;29.13;38.06;100408.78;1627146;88;21678;-92
2021/06/30 11:40:50;;;;;;;7.40;2.58;;;;;;;29.11;38.27;100409.36;1625129;88;21109;-90
2021/06/30 11:43:24;;;;;;;3.95;3.00;;;;;;;29.05;38.57;100405.17;1626294;88;21783;-90
2021/06/30 11:45:52;;;;;;;3.52;2.50;;;;;;;29.03;38.65;100408.45;1626998;88;21105;-91
2021/06/30 11:48:44;;;;;;;5.85;2.95;;;;;;;28.92;38.76;100413.61;1626938;88;21098;-90
2021/06/30 11:51:15;;;;;;;2.95;2.55;;;;;;;28.71;38.90;100412.51;1625630;88;21113;-89
2021/06/30 11:53:48;;;;;;;3.55;2.62;;;;;;;28.48;39.32;100410.56;1626241;88;21066;-90
2021/06/30 11:56:23;;;;;;;7.92;2.72;;;;;;;28.37;39.79;100418.41;1626543;88;21789;-93
2021/06/30 11:58:51;;;;;;;6.37;3.20;;;;;;;28.20;40.21;100419.81;1624233;88;21184;-90
2021/06/30 12:01:32;;;;;;;8.98;3.17;;;;;;;28.02;40.89;100422.52;1605719;88;21046;-96
2021/06/30 12:04:23;;;;;;;7.95;3.08;;;;;;;27.84;41.45;100419.42;1626667;88;21042;-96
2021/06/30 12:07:00;;;;;;;8.83;3.20;;;;;;;27.66;42.12;100428.86;1626935;88;21083;-93
2021/06/30 12:09:33;;;;;;;4.47;2.98;;;;;;;27.46;43.22;100423.14;1626966;88;21787;-93